Time;durP1;ratioP1;P1;durP2;ratioP2;P2;SDS_P1;SDS_P2;PMS_P1;PMS_P2;Temp;Humidity;BMP_temperature;BMP_pressure;BME280_temperature;BME280_humidity;BME280_pressure;Samples;Min_cycle;Max_cycle;Signal;HPM_P1;HPM_P2
2021/04/19 00:00:50;;;;;;;20.00;14.20;;;11.90;41.30;;;;;;5051786;28;20396;-76
2021/04/19 00:03:16;;;;;;;19.60;14.00;;;11.90;41.20;;;;;;5050890;28;20416;-75
2021/04/19 00:05:42;;;;;;;25.30;14.83;;;11.90;41.20;;;;;;5051386;28;20777;-75
2021/04/19 00:08:08;;;;;;;18.47;13.37;;;11.90;41.40;;;;;;5071623;28;20396;-75
2021/04/19 00:10:33;;;;;;;21.93;13.90;;;11.90;41.50;;;;;;5075717;28;20426;-75
2021/04/19 00:12:59;;;;;;;20.57;14.00;;;11.90;41.80;;;;;;5063472;28;20396;-75
2021/04/19 00:15:25;;;;;;;22.27;13.93;;;11.90;42.00;;;;;;5072554;28;20379;-74
2021/04/19 00:17:51;;;;;;;19.67;14.13;;;11.90;43.20;;;;;;5060273;28;20393;-76
2021/04/19 00:20:18;;;;;;;21.90;13.85;;;11.80;42.70;;;;;;5051462;28;20855;-76
2021/04/19 00:22:44;;;;;;;19.27;13.77;;;11.80;43.10;;;;;;5060987;28;20466;-76
2021/04/19 00:25:10;;;;;;;20.27;13.80;;;11.80;43.60;;;;;;5058935;28;20423;-76
2021/04/19 00:27:36;;;;;;;20.50;14.10;;;11.80;43.90;;;;;;5060219;28;20399;-75
2021/04/19 00:30:04;;;;;;;20.73;14.00;;;11.60;45.30;;;;;;5070338;28;20398;-75
2021/04/19 00:32:29;;;;;;;22.40;14.55;;;11.70;45.40;;;;;;5062417;28;20821;-75
2021/04/19 00:34:55;;;;;;;23.43;15.20;;;11.60;46.90;;;;;;5050694;28;20472;-75
2021/04/19 00:37:21;;;;;;;21.97;14.43;;;11.50;47.80;;;;;;5050892;28;20401;-75
2021/04/19 00:39:47;;;;;;;19.90;14.20;;;11.60;47.60;;;;;;5050940;28;20735;-76
2021/04/19 00:42:13;;;;;;;19.67;14.50;;;11.50;48.80;;;;;;5045773;28;20498;-76
2021/04/19 00:44:39;;;;;;;24.23;14.20;;;11.60;48.10;;;;;;5052984;28;20389;-75
2021/04/19 00:47:04;;;;;;;24.10;14.77;;;11.70;47.40;;;;;;5051964;28;20448;-75
2021/04/19 00:49:30;;;;;;;20.97;14.30;;;11.70;47.20;;;;;;5051171;28;20742;-75
2021/04/19 00:51:56;;;;;;;21.53;14.30;;;11.80;47.00;;;;;;5050460;28;20505;-75
2021/04/19 00:54:23;;;;;;;19.85;13.45;;;11.80;46.60;;;;;;5050488;28;20394;-75
2021/04/19 00:56:52;;;;;;;19.45;14.57;;;11.80;46.40;;;;;;5052382;28;20393;-76
2021/04/19 00:59:19;;;;;;;19.83;13.27;;;11.80;46.30;;;;;;5073326;28;20748;-76
2021/04/19 01:01:46;;;;;;;19.40;14.05;;;11.90;45.40;;;;;;5074567;28;20380;-76
2021/04/19 01:04:12;;;;;;;17.13;13.60;;;11.70;47.10;;;;;;5037028;28;20407;-76
2021/04/19 01:06:37;;;;;;;21.88;14.15;;;11.70;47.30;;;;;;5016640;28;20733;-75
2021/04/19 01:09:04;;;;;;;18.17;13.67;;;11.70;47.60;;;;;;5034431;28;20390;-77
2021/04/19 01:11:30;;;;;;;15.80;12.55;;;11.80;46.60;;;;;;5043796;28;20479;-75
2021/04/19 01:13:56;;;;;;;22.52;14.05;;;11.90;46.00;;;;;;5055346;28;20493;-75
2021/04/19 01:16:21;;;;;;;19.77;14.00;;;11.80;46.50;;;;;;5054020;28;20905;-76
2021/04/19 01:18:47;;;;;;;20.02;12.80;;;11.80;46.20;;;;;;5036087;28;20393;-76
2021/04/19 01:21:13;;;;;;;20.30;13.38;;;11.80;46.50;;;;;;5054339;28;20389;-75
2021/04/19 01:23:39;;;;;;;18.77;13.43;;;11.70;47.40;;;;;;5040434;28;20407;-75
2021/04/19 01:26:07;;;;;;;20.00;13.50;;;11.70;47.90;;;;;;5053954;28;20876;-76
2021/04/19 01:28:32;;;;;;;20.10;12.95;;;11.60;48.40;;;;;;5058658;28;20385;-77
2021/04/19 01:30:58;;;;;;;19.55;13.20;;;11.40;47.70;;;;;;5054927;28;20378;-75
2021/04/19 01:33:24;;;;;;;24.38;13.63;;;11.30;49.20;;;;;;5055134;28;20393;-76
2021/04/19 01:35:51;;;;;;;21.90;14.48;;;11.20;49.30;;;;;;5042650;28;20787;-76
2021/04/19 01:38:21;;;;;;;23.98;13.70;;;11.10;49.60;;;;;;5020519;28;20392;-76
2021/04/19 01:40:48;;;;;;;26.27;13.90;;;11.10;49.60;;;;;;5068679;28;20919;-75
2021/04/19 01:43:14;;;;;;;18.25;12.05;;;11.00;49.30;;;;;;5057315;28;20411;-75
2021/04/19 01:45:40;;;;;;;20.10;12.27;;;11.10;47.10;;;;;;5037763;28;20390;-76
2021/04/19 01:48:07;;;;;;;19.48;12.68;;;11.00;46.90;;;;;;5035338;28;20391;-75
2021/04/19 01:50:32;;;;;;;19.60;12.20;;;10.90;46.60;;;;;;5036153;28;20419;-75
2021/04/19 01:52:59;;;;;;;28.63;12.80;;;10.90;47.00;;;;;;5053581;28;20436;-75
2021/04/19 01:55:27;;;;;;;21.00;12.88;;;11.00;46.00;;;;;;5052253;28;20433;-75
2021/04/19 01:57:53;;;;;;;23.55;13.23;;;10.90;46.00;;;;;;5053425;28;20402;-74
2021/04/19 02:00:22;;;;;;;22.60;14.15;;;10.90;45.50;;;;;;5053070;28;20715;-76
2021/04/19 02:02:51;;;;;;;22.42;13.15;;;11.00;45.10;;;;;;5053208;28;20955;-76
2021/04/19 02:05:42;;;;;;;23.60;14.98;;;10.90;45.30;;;;;;5054273;28;20377;-76
2021/04/19 02:08:22;;;;;;;25.80;14.93;;;10.90;45.00;;;;;;5054581;28;20914;-76
2021/04/19 02:10:57;;;;;;;29.58;15.18;;;10.90;44.60;;;;;;5050539;28;20398;-77
2021/04/19 02:14:07;;;;;;;30.05;15.60;;;10.80;45.70;;;;;;5048872;28;20854;-76
2021/04/19 02:17:14;;;;;;;26.45;16.20;;;10.80;46.00;;;;;;5032141;28;20820;-76
2021/04/19 02:20:13;;;;;;;30.73;15.70;;;10.60;46.50;;;;;;5033818;28;20402;-76
2021/04/19 02:22:50;;;;;;;24.00;15.00;;;10.80;45.50;;;;;;5068172;28;20467;-76
2021/04/19 02:25:41;;;;;;;21.73;14.43;;;10.80;44.70;;;;;;5073373;28;20372;-76
2021/04/19 02:28:25;;;;;;;24.05;13.80;;;10.80;43.90;;;;;;5061335;28;20395;-76
2021/04/19 02:30:53;;;;;;;24.20;12.75;;;10.90;43.20;;;;;;5056975;28;20395;-76
2021/04/19 02:33:21;;;;;;;17.33;11.77;;;10.90;42.20;;;;;;5041931;28;20378;-75
2021/04/19 02:35:47;;;;;;;22.35;12.45;;;10.90;42.60;;;;;;5055280;28;20398;-75
2021/04/19 02:38:18;;;;;;;20.50;11.83;;;10.90;42.10;;;;;;5053398;28;20388;-76
2021/04/19 02:40:45;;;;;;;19.57;11.50;;;10.90;41.80;;;;;;5055507;28;20474;-75
2021/04/19 02:43:11;;;;;;;16.88;10.48;;;10.90;41.60;;;;;;5055903;28;20441;-76
2021/04/19 02:45:37;;;;;;;16.10;11.02;;;10.80;41.90;;;;;;5038427;28;20393;-76
2021/04/19 02:48:04;;;;;;;22.40;12.10;;;10.70;43.50;;;;;;5038058;28;20398;-76
2021/04/19 02:50:32;;;;;;;16.90;10.77;;;10.60;45.00;;;;;;5035995;28;20923;-75
2021/04/19 02:52:59;;;;;;;18.40;11.15;;;10.60;46.30;;;;;;5068340;28;20396;-74
2021/04/19 02:55:28;;;;;;;17.15;11.20;;;10.50;46.00;;;;;;5072393;28;20388;-74
2021/04/19 02:57:58;;;;;;;17.50;11.63;;;10.50;47.00;;;;;;5071766;28;20407;-75
2021/04/19 03:00:28;;;;;;;17.67;11.52;;;10.40;50.10;;;;;;5063872;28;20407;-75
2021/04/19 03:02:59;;;;;;;22.60;12.63;;;10.40;50.40;;;;;;5032385;28;20410;-74
2021/04/19 03:05:24;;;;;;;17.77;12.43;;;10.30;53.30;;;;;;5046318;28;20576;-74
2021/04/19 03:07:55;;;;;;;21.03;13.10;;;10.20;56.60;;;;;;5071468;28;20721;-74
2021/04/19 03:10:22;;;;;;;19.50;13.18;;;10.40;56.00;;;;;;5072815;28;20380;-74
2021/04/19 03:12:52;;;;;;;22.52;13.20;;;10.50;57.60;;;;;;5043343;28;20406;-74
2021/04/19 03:15:33;;;;;;;21.50;13.40;;;10.60;56.10;;;;;;5036398;28;20387;-74
2021/04/19 03:18:01;;;;;;;22.02;12.80;;;10.50;58.70;;;;;;5043776;28;20901;-73
2021/04/19 03:20:42;;;;;;;23.35;13.20;;;10.20;61.10;;;;;;5050832;28;20401;-74
2021/04/19 03:23:09;;;;;;;23.00;14.15;;;10.10;64.70;;;;;;5037657;28;20505;-73
2021/04/19 03:25:37;;;;;;;25.77;14.50;;;10.00;66.30;;;;;;5071683;28;20388;-73
2021/04/19 03:28:04;;;;;;;25.08;14.45;;;10.00;67.70;;;;;;5060140;28;20385;-73
2021/04/19 03:30:30;;;;;;;22.20;13.97;;;10.00;68.90;;;;;;5051236;28;20429;-74
2021/04/19 03:32:57;;;;;;;22.33;14.40;;;10.10;68.60;;;;;;5052886;28;20416;-73
2021/04/19 03:35:34;;;;;;;28.27;15.25;;;10.20;68.20;;;;;;5051903;28;20455;-73
2021/04/19 03:38:01;;;;;;;26.63;15.53;;;10.00;72.90;;;;;;5060857;28;20404;-74
2021/04/19 03:40:30;;;;;;;25.75;14.60;;;10.20;72.50;;;;;;5071805;28;20445;-74
2021/04/19 03:43:08;;;;;;;26.83;15.10;;;10.20;70.10;;;;;;5051001;28;20409;-74
2021/04/19 03:45:37;;;;;;;27.00;16.05;;;10.20;72.20;;;;;;5051652;28;20427;-74
2021/04/19 03:48:15;;;;;;;27.00;14.98;;;10.00;73.60;;;;;;5051794;28;20389;-73
2021/04/19 03:50:47;;;;;;;31.85;16.58;;;9.90;74.80;;;;;;5051087;28;20377;-73
2021/04/19 03:53:15;;;;;;;27.48;16.65;;;9.90;76.00;;;;;;5070706;28;20438;-75
2021/04/19 03:55:44;;;;;;;29.30;17.52;;;9.80;76.60;;;;;;5070852;28;20408;-74
2021/04/19 03:58:12;;;;;;;30.98;16.85;;;9.90;76.80;;;;;;5100298;22;20437;-69
2021/04/19 04:00:41;;;;;;;28.42;16.77;;;9.90;76.60;;;;;;5090215;28;21047;-69
2021/04/19 04:03:10;;;;;;;29.67;17.20;;;9.90;77.30;;;;;;5089175;28;20405;-70
2021/04/19 04:05:36;;;;;;;28.45;17.25;;;9.80;78.70;;;;;;5078597;28;20873;-69
2021/04/19 04:08:03;;;;;;;27.10;17.30;;;9.90;77.40;;;;;;5077300;28;20393;-69
2021/04/19 04:10:30;;;;;;;31.73;19.27;;;10.00;78.60;;;;;;5067946;28;20402;-70
2021/04/19 04:12:55;;;;;;;33.53;18.88;;;9.80;80.20;;;;;;5070273;28;20943;-70
2021/04/19 04:15:21;;;;;;;32.80;19.23;;;9.70;84.60;;;;;;5050211;28;20409;-70
2021/04/19 04:17:47;;;;;;;39.45;19.20;;;9.60;86.40;;;;;;5060074;28;20394;-69
2021/04/19 04:20:13;;;;;;;33.80;18.85;;;9.50;88.90;;;;;;5070486;28;20530;-70
2021/04/19 04:22:39;;;;;;;37.70;17.80;;;9.70;88.20;;;;;;5051799;28;20920;-71
2021/04/19 04:25:05;;;;;;;26.37;16.50;;;10.10;80.00;;;;;;5051927;28;20393;-70
2021/04/19 04:27:31;;;;;;;27.35;17.40;;;10.40;77.00;;;;;;5057072;28;20391;-70
2021/04/19 04:29:57;;;;;;;33.77;17.67;;;10.30;76.80;;;;;;5068790;28;20701;-69
2021/04/19 04:32:23;;;;;;;28.48;17.85;;;10.20;74.20;;;;;;5071569;28;20390;-70
2021/04/19 04:34:48;;;;;;;31.63;17.03;;;10.10;73.90;;;;;;5053494;28;20419;-69
2021/04/19 04:37:14;;;;;;;31.73;18.57;;;10.00;74.70;;;;;;5053351;28;20396;-71
2021/04/19 04:39:39;;;;;;;30.93;19.07;;;10.00;76.40;;;;;;5053609;28;20392;-70
2021/04/19 04:42:09;;;;;;;32.20;18.87;;;10.00;75.90;;;;;;5053693;28;20438;-70
2021/04/19 04:44:38;;;;;;;40.03;19.77;;;10.00;75.70;;;;;;5056389;28;20405;-70
2021/04/19 04:47:22;;;;;;;40.97;20.60;;;9.90;76.10;;;;;;5053168;28;20374;-70
2021/04/19 04:50:10;;;;;;;103.22;56.05;;;9.80;77.30;;;;;;5053441;28;20493;-70
2021/04/19 04:52:53;;;;;;;47.90;28.98;;;9.80;81.90;;;;;;5052219;28;20435;-70
2021/04/19 04:55:20;;;;;;;38.47;20.95;;;9.80;82.50;;;;;;5054286;28;20393;-71
2021/04/19 04:57:47;;;;;;;88.20;47.70;;;9.80;81.70;;;;;;5056423;28;20397;-71
2021/04/19 05:00:14;;;;;;;36.65;21.70;;;9.80;85.00;;;;;;5073130;28;20376;-70
2021/04/19 05:02:41;;;;;;;46.50;26.40;;;9.70;83.50;;;;;;5073777;28;20438;-70
2021/04/19 05:05:09;;;;;;;50.40;28.75;;;9.60;85.40;;;;;;5072565;28;20383;-71
2021/04/19 05:07:35;;;;;;;35.85;20.52;;;9.60;88.50;;;;;;5066544;28;20389;-70
2021/04/19 05:10:03;;;;;;;51.92;28.73;;;10.00;81.20;;;;;;5073164;28;20463;-70
2021/04/19 05:12:31;;;;;;;45.05;26.08;;;10.10;81.70;;;;;;5080489;28;20750;-70
2021/04/19 05:15:02;;;;;;;51.53;29.77;;;10.20;79.80;;;;;;5073090;28;20393;-70
2021/04/19 05:17:28;;;;;;;41.03;24.20;;;10.30;81.60;;;;;;5056276;28;20485;-70
2021/04/19 05:19:54;;;;;;;35.85;20.00;;;10.40;79.80;;;;;;5066256;28;20394;-70
2021/04/19 05:22:20;;;;;;;33.38;19.17;;;10.50;72.70;;;;;;5069821;28;20417;-70
2021/04/19 05:24:46;;;;;;;37.63;20.73;;;10.20;75.70;;;;;;5052785;28;20462;-70
2021/04/19 05:27:12;;;;;;;39.08;20.67;;;10.00;81.40;;;;;;5066519;28;20402;-71
2021/04/19 05:29:40;;;;;;;35.67;21.63;;;9.80;82.00;;;;;;5056901;28;20398;-70
2021/04/19 05:32:10;;;;;;;36.47;19.50;;;9.70;84.50;;;;;;5064389;28;20876;-71
2021/04/19 05:34:36;;;;;;;40.28;22.83;;;9.70;85.00;;;;;;5076206;28;20386;-69
2021/04/19 05:37:05;;;;;;;35.03;21.00;;;9.50;86.30;;;;;;5090960;28;20440;-69
2021/04/19 05:39:33;;;;;;;83.50;52.80;;;9.50;90.30;;;;;;5071181;28;20391;-70
2021/04/19 05:42:02;;;;;;;44.10;25.90;;;9.60;90.40;;;;;;5052571;28;20454;-71
2021/04/19 05:44:29;;;;;;;49.90;29.67;;;9.60;90.80;;;;;;5051581;28;20439;-70
2021/04/19 05:46:55;;;;;;;56.38;33.17;;;9.50;95.20;;;;;;5070226;28;20891;-70
2021/04/19 05:49:21;;;;;;;42.33;26.33;;;9.70;97.30;;;;;;5071750;28;20403;-70
2021/04/19 05:51:48;;;;;;;76.60;47.20;;;9.80;96.40;;;;;;5060795;28;20392;-70
2021/04/19 05:54:16;;;;;;;40.35;23.80;;;9.80;96.50;;;;;;5071377;28;20391;-70
2021/04/19 05:56:59;;;;;;;40.85;24.10;;;9.80;96.40;;;;;;5069873;28;20449;-69
2021/04/19 05:59:35;;;;;;;42.42;24.65;;;9.60;95.40;;;;;;5063463;28;20459;-70
2021/04/19 06:02:01;;;;;;;41.72;22.50;;;9.60;95.90;;;;;;5062347;28;20413;-71
2021/04/19 06:04:39;;;;;;;41.65;22.90;;;9.60;93.80;;;;;;5079015;28;20917;-69
2021/04/19 06:07:16;;;;;;;39.28;24.88;;;9.60;93.50;;;;;;5052080;28;20810;-69
2021/04/19 06:09:50;;;;;;;44.03;26.77;;;9.50;95.00;;;;;;5053783;28;20454;-70
2021/04/19 06:12:20;;;;;;;43.47;25.10;;;9.50;97.50;;;;;;5063492;28;20768;-71
2021/04/19 06:14:49;;;;;;;44.38;24.42;;;9.60;98.90;;;;;;5070130;28;20411;-71
2021/04/19 06:17:15;;;;;;;43.00;25.42;;;9.70;99.80;;;;;;5073388;28;20482;-71
2021/04/19 06:19:46;;;;;;;44.78;25.73;;;9.80;98.00;;;;;;5051756;28;20409;-71
2021/04/19 06:22:16;;;;;;;43.15;25.77;;;9.80;97.50;;;;;;5051857;28;20392;-70
2021/04/19 06:24:50;;;;;;;44.70;25.50;;;9.80;98.20;;;;;;5052473;28;20448;-71
2021/04/19 06:27:20;;;;;;;45.33;26.00;;;9.90;98.30;;;;;;5057274;28;20897;-71
2021/04/19 06:29:46;;;;;;;44.22;25.77;;;10.00;98.40;;;;;;5068493;28;20403;-71
2021/04/19 06:32:13;;;;;;;42.93;27.17;;;10.10;97.20;;;;;;5083276;28;20390;-71
2021/04/19 06:34:39;;;;;;;34.92;23.73;;;10.30;96.10;;;;;;5068779;28;20787;-71
2021/04/19 06:37:06;;;;;;;34.08;22.52;;;10.50;93.40;;;;;;5064394;28;20479;-71
2021/04/19 06:39:32;;;;;;;34.30;22.02;;;10.70;90.40;;;;;;5069939;28;20392;-70
2021/04/19 06:41:58;;;;;;;31.63;20.48;;;10.80;89.20;;;;;;5065809;28;20399;-71
2021/04/19 06:44:25;;;;;;;35.05;21.75;;;11.00;88.00;;;;;;5054146;28;20420;-71
2021/04/19 06:46:50;;;;;;;31.10;20.90;;;11.10;85.40;;;;;;5051901;28;20389;-71
2021/04/19 06:49:16;;;;;;;36.27;20.70;;;11.30;81.40;;;;;;5054634;28;20449;-71
2021/04/19 06:51:43;;;;;;;36.03;21.27;;;11.50;77.90;;;;;;5078563;28;20466;-70
2021/04/19 06:54:12;;;;;;;31.53;18.60;;;11.60;73.20;;;;;;5055505;28;20396;-71
2021/04/19 06:56:43;;;;;;;29.48;19.75;;;11.70;68.50;;;;;;5068328;28;20487;-73
2021/04/19 06:59:15;;;;;;;29.42;18.85;;;11.90;67.10;;;;;;5060562;28;20899;-73
2021/04/19 07:01:42;;;;;;;32.20;20.00;;;11.80;66.10;;;;;;5062175;28;20429;-70
2021/04/19 07:04:11;;;;;;;31.73;20.00;;;11.80;68.90;;;;;;5063041;28;21016;-69
2021/04/19 07:06:38;;;;;;;35.75;20.65;;;11.80;66.50;;;;;;5061011;28;20493;-70
2021/04/19 07:09:28;;;;;;;34.28;20.75;;;11.40;70.50;;;;;;5054528;28;20381;-69
2021/04/19 07:12:08;;;;;;;35.45;21.40;;;11.10;74.10;;;;;;5069222;28;20410;-70
2021/04/19 07:14:37;;;;;;;31.63;21.27;;;11.10;75.70;;;;;;5090564;28;20435;-69
2021/04/19 07:17:05;;;;;;;32.83;21.77;;;11.10;77.10;;;;;;5059580;28;20878;-70
2021/04/19 07:19:31;;;;;;;33.65;23.45;;;11.00;79.00;;;;;;5060125;28;20400;-69
2021/04/19 07:21:57;;;;;;;35.28;21.70;;;11.00;79.50;;;;;;5066321;28;20414;-69
2021/04/19 07:24:27;;;;;;;39.60;23.00;;;11.10;79.00;;;;;;5052431;28;20961;-69
2021/04/19 07:26:56;;;;;;;39.40;23.15;;;11.10;78.30;;;;;;5061188;28;20485;-68
2021/04/19 07:29:22;;;;;;;40.13;23.52;;;11.10;79.20;;;;;;5065399;28;20408;-69
2021/04/19 07:31:56;;;;;;;37.28;22.08;;;11.00;79.70;;;;;;5071823;28;20428;-70
2021/04/19 07:34:24;;;;;;;32.45;21.27;;;11.10;78.10;;;;;;5061019;28;20905;-71
2021/04/19 07:37:01;;;;;;;37.63;22.33;;;11.20;73.20;;;;;;5050492;28;20392;-72
2021/04/19 07:39:35;;;;;;;37.78;22.17;;;11.00;71.50;;;;;;5065304;28;20822;-72
2021/04/19 07:42:06;;;;;;;39.63;24.25;;;10.90;71.50;;;;;;5056770;28;20432;-71
2021/04/19 07:44:39;;;;;;;39.53;25.30;;;10.70;75.90;;;;;;5050393;28;20488;-71
2021/04/19 07:47:25;;;;;;;46.70;27.77;;;10.60;76.60;;;;;;5051128;28;20424;-71
2021/04/19 07:50:09;;;;;;;38.38;25.38;;;10.60;77.90;;;;;;5063909;28;20390;-72
2021/04/19 07:53:12;;;;;;;47.42;27.85;;;10.60;76.90;;;;;;5051340;28;20480;-72
2021/04/19 07:55:40;;;;;;;47.80;31.05;;;10.70;78.60;;;;;;5055777;28;20395;-70
2021/04/19 07:58:08;;;;;;;54.15;32.90;;;11.00;75.00;;;;;;5069898;28;20403;-70
2021/04/19 08:00:41;;;;;;;46.80;31.47;;;11.10;73.20;;;;;;5063651;28;20412;-71
2021/04/19 08:03:07;;;;;;;46.00;31.20;;;11.10;70.90;;;;;;5052477;28;20409;-72
2021/04/19 08:05:39;;;;;;;56.30;32.47;;;11.10;72.00;;;;;;5062620;28;20388;-71
2021/04/19 08:08:06;;;;;;;44.25;30.50;;;11.10;72.40;;;;;;5056931;28;20396;-71
2021/04/19 08:10:33;;;;;;;47.03;32.13;;;11.40;66.80;;;;;;5066467;28;20419;-72
2021/04/19 08:13:08;;;;;;;42.88;28.83;;;11.50;66.80;;;;;;5062251;28;20387;-71
2021/04/19 08:15:35;;;;;;;46.83;30.73;;;11.40;66.70;;;;;;5051829;28;20401;-71
2021/04/19 08:18:03;;;;;;;43.70;29.73;;;11.30;68.30;;;;;;5055605;28;20385;-72
2021/04/19 08:20:29;;;;;;;44.72;30.58;;;11.40;67.50;;;;;;5060268;28;20408;-71
2021/04/19 08:23:10;;;;;;;42.00;30.58;;;11.30;66.80;;;;;;5070465;28;20408;-71
2021/04/19 08:25:38;;;;;;;39.85;28.08;;;11.20;67.10;;;;;;5051813;28;20442;-71
2021/04/19 08:28:10;;;;;;;45.70;30.38;;;11.10;69.60;;;;;;5061403;28;20449;-72
2021/04/19 08:30:37;;;;;;;45.53;30.55;;;11.00;71.00;;;;;;5059689;28;20392;-71
2021/04/19 08:33:05;;;;;;;49.70;30.40;;;11.00;73.70;;;;;;5068382;28;20490;-71
2021/04/19 08:35:31;;;;;;;47.42;31.77;;;11.00;74.80;;;;;;5067466;28;20399;-71
2021/04/19 08:37:59;;;;;;;52.50;32.92;;;11.00;73.80;;;;;;5054833;28;20429;-71
2021/04/19 08:40:27;;;;;;;46.75;33.67;;;11.00;74.30;;;;;;5051415;28;20768;-71
2021/04/19 08:42:53;;;;;;;48.38;32.88;;;11.00;74.90;;;;;;5060268;28;20438;-71
2021/04/19 08:45:20;;;;;;;45.92;31.00;;;11.00;74.90;;;;;;5069754;28;20396;-71
2021/04/19 08:47:46;;;;;;;47.20;31.83;;;10.90;74.50;;;;;;5050875;28;20893;-71
2021/04/19 08:50:17;;;;;;;46.25;32.00;;;11.00;73.50;;;;;;5054245;28;20447;-72
2021/04/19 08:52:43;;;;;;;48.03;33.50;;;11.10;73.40;;;;;;5055927;28;20937;-71
2021/04/19 08:55:10;;;;;;;46.63;32.05;;;11.20;72.70;;;;;;5075313;28;20431;-71
2021/04/19 08:57:36;;;;;;;44.95;31.58;;;11.30;71.50;;;;;;5058371;28;20408;-70
2021/04/19 09:00:03;;;;;;;47.15;32.50;;;11.40;70.90;;;;;;5060185;28;20415;-72
2021/04/19 09:02:29;;;;;;;44.35;29.13;;;11.60;69.70;;;;;;5072783;28;20413;-72
2021/04/19 09:05:05;;;;;;;41.75;30.00;;;11.50;66.90;;;;;;5070802;28;20485;-71
2021/04/19 09:07:33;;;;;;;47.17;34.45;;;11.50;68.00;;;;;;5062137;28;20393;-72
2021/04/19 09:09:59;;;;;;;48.25;35.33;;;11.50;66.70;;;;;;5064334;28;20477;-72
2021/04/19 09:12:27;;;;;;;53.20;38.30;;;11.90;61.90;;;;;;5060255;28;20906;-72
2021/04/19 09:15:12;;;;;;;53.08;39.17;;;12.00;62.40;;;;;;5077507;28;20424;-72
2021/04/19 09:17:39;;;;;;;54.13;37.60;;;11.90;60.70;;;;;;5065382;28;20432;-72
2021/04/19 09:20:08;;;;;;;59.67;42.33;;;11.90;60.20;;;;;;5071610;28;20796;-73
2021/04/19 09:22:34;;;;;;;53.13;37.90;;;11.90;61.70;;;;;;5078002;28;20406;-70
2021/04/19 09:25:15;;;;;;;52.92;38.25;;;11.80;59.70;;;;;;5067282;28;20774;-72
2021/04/19 09:27:53;;;;;;;49.38;36.60;;;12.00;61.50;;;;;;5074775;28;20419;-71
2021/04/19 09:30:32;;;;;;;51.20;37.63;;;12.10;58.90;;;;;;5079071;28;20499;-72
2021/04/19 09:33:06;;;;;;;49.30;36.97;;;12.20;59.70;;;;;;5072013;28;20763;-71
2021/04/19 09:35:50;;;;;;;47.22;34.80;;;12.40;56.70;;;;;;5059087;28;20421;-71
2021/04/19 09:38:49;;;;;;;47.55;33.25;;;12.60;53.10;;;;;;5075842;28;20761;-73
2021/04/19 09:41:17;;;;;;;46.67;31.20;;;13.30;48.70;;;;;;5058956;28;20396;-69
2021/04/19 09:43:46;;;;;;;42.60;32.95;;;13.70;48.00;;;;;;5065502;28;20409;-71
2021/04/19 09:46:18;;;;;;;47.72;33.50;;;13.50;48.00;;;;;;5077396;28;20407;-70
2021/04/19 09:48:55;;;;;;;52.37;34.90;;;13.30;48.90;;;;;;5060753;28;20434;-70
2021/04/19 09:51:24;;;;;;;56.97;36.45;;;13.00;49.60;;;;;;5066150;28;20485;-72
2021/04/19 09:54:04;;;;;;;55.97;38.10;;;12.80;52.80;;;;;;5058754;28;20400;-70
2021/04/19 09:56:59;;;;;;;57.60;38.65;;;12.50;53.90;;;;;;5072256;28;20820;-72
2021/04/19 09:59:28;;;;;;;53.85;36.92;;;12.10;57.40;;;;;;5049523;28;20423;-72
2021/04/19 10:01:55;;;;;;;47.70;36.83;;;11.90;57.60;;;;;;5064470;28;20504;-72
2021/04/19 10:04:22;;;;;;;55.85;38.35;;;12.00;58.20;;;;;;5065777;28;20407;-72
2021/04/19 10:07:00;;;;;;;55.38;39.80;;;12.10;58.80;;;;;;5059261;28;20402;-71
2021/04/19 10:09:28;;;;;;;54.00;37.80;;;12.30;57.70;;;;;;5058547;28;20504;-70
2021/04/19 10:12:05;;;;;;;57.22;39.33;;;12.60;54.20;;;;;;5060019;28;20786;-70
2021/04/19 10:14:39;;;;;;;51.25;36.53;;;13.00;53.40;;;;;;5061158;28;20412;-69
2021/04/19 10:17:18;;;;;;;50.30;36.90;;;13.30;48.10;;;;;;5065185;28;20420;-71
2021/04/19 10:19:44;;;;;;;51.53;36.50;;;13.70;45.20;;;;;;5054622;28;20459;-68
2021/04/19 10:22:12;;;;;;;48.20;35.97;;;14.00;43.60;;;;;;5065412;28;20398;-71
2021/04/19 10:24:58;;;;;;;44.93;34.20;;;14.50;41.60;;;;;;5059421;28;20389;-70
2021/04/19 10:27:32;;;;;;;46.83;35.15;;;14.70;38.10;;;;;;5058274;28;20385;-70
2021/04/19 10:30:08;;;;;;;47.45;35.15;;;15.30;37.10;;;;;;5070608;28;20422;-69
2021/04/19 10:32:34;;;;;;;46.97;34.70;;;15.40;34.30;;;;;;5069051;28;20386;-71
2021/04/19 10:34:59;;;;;;;44.45;34.75;;;15.10;35.90;;;;;;5052519;28;20388;-73
2021/04/19 10:37:25;;;;;;;48.95;35.35;;;15.00;37.00;;;;;;5058349;28;20804;-70
2021/04/19 10:39:50;;;;;;;44.87;35.23;;;15.10;36.50;;;;;;5074816;28;20435;-70
2021/04/19 10:42:31;;;;;;;48.27;35.40;;;15.50;36.90;;;;;;5052220;28;20386;-70
2021/04/19 10:45:07;;;;;;;42.88;34.05;;;15.80;35.60;;;;;;5052139;28;20393;-70
2021/04/19 10:47:33;;;;;;;42.27;32.20;;;16.00;30.80;;;;;;5071129;28;20487;-70
2021/04/19 10:49:58;;;;;;;41.57;32.10;;;16.20;28.30;;;;;;5069785;28;20467;-70
2021/04/19 10:52:24;;;;;;;42.83;32.00;;;16.10;28.70;;;;;;5064366;28;20393;-69
2021/04/19 10:54:50;;;;;;;44.23;33.33;;;15.80;28.70;;;;;;5051669;28;20466;-70
2021/04/19 10:57:27;;;;;;;45.92;34.45;;;15.40;31.70;;;;;;5051581;28;20439;-70
2021/04/19 10:59:55;;;;;;;47.85;35.70;;;15.30;34.20;;;;;;5051120;28;20400;-70
2021/04/19 11:02:29;;;;;;;44.60;33.50;;;15.30;33.60;;;;;;5051255;28;20459;-69
2021/04/19 11:04:55;;;;;;;45.90;33.47;;;16.00;30.90;;;;;;5051243;28;20386;-71
2021/04/19 11:07:30;;;;;;;45.05;34.42;;;16.20;30.30;;;;;;5050857;28;20393;-70
2021/04/19 11:10:21;;;;;;;44.75;33.10;;;16.00;30.80;;;;;;5051053;28;20378;-70
2021/04/19 11:13:12;;;;;;;44.35;34.03;;;16.00;29.50;;;;;;5070230;28;20394;-69
2021/04/19 11:15:46;;;;;;;44.88;34.42;;;16.00;28.80;;;;;;5068607;28;20431;-69
2021/04/19 11:18:22;;;;;;;48.17;33.60;;;15.90;29.90;;;;;;5054370;28;20889;-69
2021/04/19 11:20:53;;;;;;;43.90;32.70;;;15.90;29.10;;;;;;5061989;28;20400;-69
2021/04/19 11:23:21;;;;;;;47.80;35.58;;;15.40;29.60;;;;;;5070324;28;20510;-71
2021/04/19 11:25:48;;;;;;;42.65;33.95;;;15.00;33.70;;;;;;5070161;28;20453;-69
2021/04/19 11:28:23;;;;;;;45.60;33.58;;;15.10;32.50;;;;;;5060810;28;20384;-70
2021/04/19 11:30:52;;;;;;;41.67;32.00;;;15.30;31.20;;;;;;5064212;28;20388;-69
2021/04/19 11:33:26;;;;;;;37.65;29.63;;;15.50;31.20;;;;;;5058119;28;20487;-69
2021/04/19 11:36:04;;;;;;;38.72;29.70;;;15.60;30.40;;;;;;5050451;28;20735;-70
2021/04/19 11:38:29;;;;;;;35.85;28.30;;;15.90;28.40;;;;;;5051272;28;20750;-71
2021/04/19 11:41:04;;;;;;;37.38;28.95;;;15.80;27.80;;;;;;5056061;28;20410;-69
2021/04/19 11:43:37;;;;;;;40.17;30.58;;;15.50;29.80;;;;;;5069756;28;20447;-70
2021/04/19 11:46:12;;;;;;;33.00;27.83;;;15.40;29.70;;;;;;5063766;28;20389;-70
2021/04/19 11:48:40;;;;;;;35.40;27.35;;;15.50;28.10;;;;;;5050291;28;20451;-70
2021/04/19 11:51:07;;;;;;;39.15;29.30;;;15.50;28.30;;;;;;5050278;28;20442;-71
2021/04/19 11:53:35;;;;;;;54.92;28.98;;;15.60;27.70;;;;;;5049110;28;20466;-69
2021/04/19 11:56:02;;;;;;;33.20;25.63;;;15.80;27.60;;;;;;5049231;28;20432;-70
2021/04/19 11:58:28;;;;;;;36.38;26.27;;;16.00;26.90;;;;;;5050550;28;20564;-69
2021/04/19 12:00:55;;;;;;;32.40;26.80;;;16.20;26.20;;;;;;5086167;28;20874;-70
2021/04/19 12:03:26;;;;;;;36.75;27.73;;;16.50;25.50;;;;;;5050891;28;20408;-70
2021/04/19 12:05:53;;;;;;;33.25;26.40;;;16.60;23.50;;;;;;5050456;28;20451;-70
2021/04/19 12:08:20;;;;;;;36.05;28.88;;;16.60;23.60;;;;;;5050227;28;20708;-70
2021/04/19 12:10:45;;;;;;;35.37;26.90;;;16.60;24.50;;;;;;5050109;28;20471;-71
2021/04/19 12:13:14;;;;;;;33.20;26.30;;;16.80;21.90;;;;;;5073782;28;20389;-70
2021/04/19 12:15:44;;;;;;;32.63;25.63;;;16.70;22.60;;;;;;5050534;28;20886;-71
2021/04/19 12:18:10;;;;;;;35.85;26.38;;;16.60;24.50;;;;;;5062620;28;20392;-70
2021/04/19 12:20:37;;;;;;;31.05;24.75;;;16.80;22.60;;;;;;5069956;28;20478;-70
2021/04/19 12:23:03;;;;;;;33.28;27.02;;;16.80;22.70;;;;;;5069751;28;20500;-71
2021/04/19 12:25:29;;;;;;;35.85;27.35;;;16.90;23.00;;;;;;5069453;28;20903;-70
2021/04/19 12:27:56;;;;;;;34.88;27.80;;;17.40;20.90;;;;;;5068378;28;20391;-70
2021/04/19 12:30:22;;;;;;;41.00;26.23;;;17.60;20.20;;;;;;5050912;28;20413;-71
2021/04/19 12:32:47;;;;;;;35.75;26.98;;;17.70;19.60;;;;;;5045000;28;20905;-70
2021/04/19 12:35:14;;;;;;;32.88;25.88;;;17.60;20.20;;;;;;5045311;28;20404;-69
2021/04/19 12:37:39;;;;;;;34.78;26.17;;;17.60;19.60;;;;;;5046883;28;20385;-69
2021/04/19 12:40:06;;;;;;;34.25;26.50;;;17.70;19.70;;;;;;5047340;28;20482;-70
2021/04/19 12:42:31;;;;;;;30.67;24.67;;;18.00;20.20;;;;;;5048747;28;20462;-69